Albuquerque, NM

8:47 AM MDT on September 21, 2014 (GMT -0600)
High Desert | Change Station
CLOSE
Current Station
Personal Weather Station
Location: Albuquerque, NM
Elevation: 6076 ft
Nearby Weather Stations

Elev 6076 ft 35.15 °N, 106.49 °W | Updated 183 days ago

Thunderstorm
Thunderstorm
66 °F
Feels Like 66 °F
N
12
Wind Variable Wind from ESE
Gusts 15 mph

Today
High -- | Low -- °F
--% Chance of Precip.
Yesterday
High -- | Low -- °F
Precip. -- in
6:53 AM 7:04 PM
Waning Crescent, 6% visible
Pressure 30.06 in
Visibility 10.0 miles
Clouds Few 3500 ft
Few 5000 ft
Scattered Clouds 8000 ft
Scattered Clouds 25000 ft
Dew Point 54 °F
Humidity 65%
Rainfall -999.00 in
Snow Depth 1 in , 1 in , 3 in
UV 1 out of 12
Pollen 5.10 out of 12
Air Quality Not available.
Flu Activity Not available.
METAR KABQ 211352Z 09014KT 10SM FEW035 FEW050 SCT080 SCT250 20/13 A3030 RMK AO2 SLP180 TCU DSNT W ACC DSNT SW MTN TOPS OBSC NE-SE T02000128

More Conditions Fewer Conditions

Pressure 30.06 in
Visibility 10.0 miles
Clouds Few 3500 ft
Few 5000 ft
Scattered Clouds 8000 ft
Scattered Clouds 25000 ft
Dew Point 54 °F
Humidity 65%
Rainfall -999.00 in
Snow Depth 1 in , 1 in , 3 in
UV 1 out of 12
Pollen 5.10 out of 12
Air Quality Not available.
Flu Activity Not available.
METAR KABQ 211352Z 09014KT 10SM FEW035 FEW050 SCT080 SCT250 20/13 A3030 RMK AO2 SLP180 TCU DSNT W ACC DSNT SW MTN TOPS OBSC NE-SE T02000128

More Conditions Fewer Conditions

10-Day Weather Forecast

Almanac

Astronomy

Sep. 21, 2014 Rise Set
Actual Time 6:53 AM MDT 7:04 PM MDT
Civil Twilight 6:27 AM MDT 7:29 PM MDT
Nautical Twilight 5:58 AM MDT 7:58 PM MDT
Astronomical Twilight 5:28 AM MDT 8:28 PM MDT
Moon 4:33 AM MDT 5:38 PM MDT
Length of Visible Light 13h 01m
Length of Day
12h 10m
Tomorrow will be 2m 11s shorter.
Waning Crescent, 6% of the Moon is Illuminated
Today
Waning Crescent
Sep 24
New
Oct 1
First Quarter
Oct 8
Full
Oct 15
Last Quarter

Today's Extremes

State Highs State Lows

Community

WunderPhotos

Upload Photos

1,755,167 photos uploaded!

Nearby

Snow Depth

Station Depth Elevation
Tolby 1 in 10180 ft
Silver Creek Divide 1 in 9000 ft
Wesner Springs 3 in 11120 ft
Gallegos Peak 0 in 9800 ft
Sierra Blanca 1 in 10280 ft

Earthquake Activity

City Distance Mag. Time & Date
No recent earthquake activity has been reported nearby.
Minimum magnitude displayed is 2.5.

Coastal Water Temperatures

Place Temperature
No Stations Reporting

Nearby Weather Stations